Time;durP1;ratioP1;P1;durP2;ratioP2;P2;SDS_P1;SDS_P2;PMS_P1;PMS_P2;Temp;Humidity;BMP_temperature;BMP_pressure;BME280_temperature;BME280_humidity;BME280_pressure;Samples;Min_cycle;Max_cycle;Signal;HPM_P1;HPM_P2
2022/12/10 00:01:20;;;;;;;;;57.75;48.50;;;;;4.79;64.29;99997.69;4993649;28;45515;-59
2022/12/10 00:03:46;;;;;;;;;65.50;49.75;;;;;4.79;64.57;99997.69;4994901;28;45432;-61
2022/12/10 00:06:16;;;;;;;;;58.50;48.50;;;;;4.79;64.54;100002.88;4995877;28;46185;-59
2022/12/10 00:08:42;;;;;;;;;62.75;50.00;;;;;4.77;63.78;100002.91;4989717;28;45497;-60
2022/12/10 00:11:09;;;;;;;;;59.25;48.50;;;;;4.78;64.26;100003.75;4996496;28;45560;-60
2022/12/10 00:13:36;;;;;;;;;59.25;46.75;;;;;4.78;64.64;100002.03;4996600;28;45593;-60
2022/12/10 00:16:03;;;;;;;;;59.75;51.50;;;;;4.77;64.60;99999.44;4995824;28;45484;-61
2022/12/10 00:18:29;;;;;;;;;57.25;47.75;;;;;4.76;64.56;100005.56;4996404;28;45554;-59
2022/12/10 00:20:54;;;;;;;;;62.75;50.25;;;;;4.71;65.07;100008.25;4996408;28;45531;-59
2022/12/10 00:23:20;;;;;;;;;64.75;51.00;;;;;4.70;65.04;100013.47;4985059;28;45651;-59
2022/12/10 00:25:45;;;;;;;;;61.25;50.25;;;;;4.66;64.79;100020.50;4995932;28;45496;-59
2022/12/10 00:28:10;;;;;;;;;58.25;47.50;;;;;4.62;65.57;100014.50;4996512;28;45441;-59
2022/12/10 00:30:36;;;;;;;;;63.25;50.25;;;;;4.60;64.83;100024.09;4996524;28;45734;-60
2022/12/10 00:33:01;;;;;;;;;56.25;48.50;;;;;4.60;65.42;100023.25;4996267;28;45538;-60
2022/12/10 00:35:27;;;;;;;;;65.00;51.00;;;;;4.57;65.86;100020.72;4996091;28;45481;-60
2022/12/10 00:37:52;;;;;;;;;53.00;45.25;;;;;4.57;65.15;100029.38;4996153;28;45487;-59
2022/12/10 00:40:17;;;;;;;;;60.50;50.00;;;;;4.52;65.59;100019.94;4996436;28;45461;-60
2022/12/10 00:42:43;;;;;;;;;60.50;49.50;;;;;4.54;65.54;100021.63;4996321;28;45474;-59
2022/12/10 00:45:08;;;;;;;;;61.00;50.75;;;;;4.52;65.37;100014.72;4995942;28;46009;-59
2022/12/10 00:47:34;;;;;;;;;60.75;50.00;;;;;4.51;65.49;100021.66;4993135;28;45512;-59
2022/12/10 00:49:59;;;;;;;;;62.00;50.00;;;;;4.54;65.24;100023.34;4996552;28;45613;-60
2022/12/10 00:52:24;;;;;;;;;58.75;46.75;;;;;4.54;65.58;100026.84;4986793;28;45575;-61
2022/12/10 00:54:50;;;;;;;;;63.25;50.25;;;;;4.51;65.75;100032.06;4995731;28;45481;-60
2022/12/10 00:57:16;;;;;;;;;64.00;50.50;;;;;4.50;65.47;100026.91;4995152;28;45457;-60
2022/12/10 00:59:41;;;;;;;;;56.75;48.50;;;;;4.46;65.69;100031.34;4995876;28;45577;-59
2022/12/10 01:02:06;;;;;;;;;66.75;54.00;;;;;4.43;66.30;100032.25;4978104;28;45880;-59
2022/12/10 01:04:32;;;;;;;;;61.75;49.75;;;;;4.45;66.40;100028.75;4995792;28;46111;-60
2022/12/10 01:06:59;;;;;;;;;60.25;49.00;;;;;4.40;65.72;100034.03;4995951;28;45583;-60
2022/12/10 01:09:26;;;;;;;;;56.50;47.75;;;;;4.43;66.20;100034.84;4995667;28;45592;-60
2022/12/10 01:11:53;;;;;;;;;61.75;49.50;;;;;4.47;66.27;100034.78;4995149;28;45568;-61
2022/12/10 01:14:27;;;;;;;;;63.00;48.50;;;;;4.47;65.79;100030.44;4995282;28;46250;-59
2022/12/10 01:16:55;;;;;;;;;62.50;50.25;;;;;4.46;65.83;100030.44;4995690;28;45496;-60
2022/12/10 01:19:21;;;;;;;;;64.75;51.75;;;;;4.46;65.71;100036.53;4995624;28;45410;-60
2022/12/10 01:21:53;;;;;;;;;58.75;48.00;;;;;4.47;66.12;100040.84;4995653;28;45659;-60
2022/12/10 01:24:20;;;;;;;;;59.50;50.25;;;;;4.48;65.99;100042.56;4992506;28;47404;-60
2022/12/10 01:26:45;;;;;;;;;61.25;51.00;;;;;4.49;66.02;100038.22;4995226;28;45484;-59
2022/12/10 01:29:11;;;;;;;;;59.50;47.50;;;;;4.50;65.93;100048.59;4995810;28;45440;-60
2022/12/10 01:31:38;;;;;;;;;63.00;49.75;;;;;4.49;66.20;100051.25;4995446;28;45512;-60
2022/12/10 01:34:05;;;;;;;;;59.00;46.00;;;;;4.47;66.18;100056.47;4996090;28;45465;-60
2022/12/10 01:36:35;;;;;;;;;67.00;55.00;;;;;4.46;65.85;100051.28;4995083;28;45480;-60
2022/12/10 01:39:02;;;;;;;;;59.75;47.75;;;;;4.40;65.81;100047.06;4987988;28;45452;-60
2022/12/10 01:41:34;;;;;;;;;61.00;49.75;;;;;4.40;66.73;100066.13;4992194;28;45517;-59
2022/12/10 01:44:09;;;;;;;;;64.00;52.50;;;;;4.39;66.73;100066.19;4995415;28;46382;-59
2022/12/10 01:46:39;;;;;;;;;58.50;49.25;;;;;4.38;66.57;100069.69;4977524;28;45542;-60
2022/12/10 01:49:08;;;;;;;;;64.75;49.50;;;;;4.40;66.38;100068.72;4984032;28;45624;-59
2022/12/10 01:51:36;;;;;;;;;64.75;51.75;;;;;4.41;66.27;100077.44;4995180;28;45512;-59
2022/12/10 01:54:08;;;;;;;;;63.75;51.25;;;;;4.43;66.45;100073.03;4995043;28;45541;-58
2022/12/10 01:56:38;;;;;;;;;63.00;51.25;;;;;4.45;66.33;100073.88;4995173;28;45448;-59
2022/12/10 01:59:04;;;;;;;;;65.50;51.50;;;;;4.45;66.86;100086.88;4995007;28;45507;-58
2022/12/10 02:02:12;;;;;;;;;65.50;51.00;;;;;4.45;66.92;100086.88;4995105;28;45443;-60
2022/12/10 02:04:56;;;;;;;;;66.75;53.00;;;;;4.48;66.83;100091.19;4982325;28;45511;-59
2022/12/10 02:07:24;;;;;;;;;64.25;49.25;;;;;4.47;66.39;100095.53;4994858;28;45648;-59
2022/12/10 02:10:10;;;;;;;;;61.75;50.75;;;;;4.47;66.46;100092.06;4994939;28;45508;-60
2022/12/10 02:12:44;;;;;;;;;57.75;48.75;;;;;4.47;66.84;100092.06;4983378;28;45448;-59
2022/12/10 02:15:10;;;;;;;;;61.75;48.00;;;;;4.49;66.35;100096.38;4994861;28;46500;-60
2022/12/10 02:17:42;;;;;;;;;60.75;48.00;;;;;4.49;66.05;100095.53;4994610;28;45547;-60
2022/12/10 02:20:24;;;;;;;;;48.50;43.75;;;;;4.46;66.30;100090.34;4994742;28;45507;-60
2022/12/10 02:22:58;;;;;;;;;57.25;49.25;;;;;4.45;66.43;100096.44;4994745;28;45501;-61
2022/12/10 02:25:31;;;;;;;;;62.25;50.50;;;;;4.42;66.26;100093.00;4994207;28;45838;-60
2022/12/10 02:28:02;;;;;;;;;58.50;48.75;;;;;4.47;66.67;100102.50;4979202;28;46092;-60
2022/12/10 02:30:31;;;;;;;;;59.75;50.25;;;;;4.47;66.40;100100.75;4994736;28;45468;-60
2022/12/10 02:33:00;;;;;;;;;60.75;49.50;;;;;4.46;66.52;100104.25;4995333;28;45549;-59
2022/12/10 02:35:31;;;;;;;;;59.00;48.75;;;;;4.45;66.77;100107.72;4990132;28;45561;-58
2022/12/10 02:38:03;;;;;;;;;63.25;51.75;;;;;4.43;66.45;100106.88;4990083;28;45378;-59
2022/12/10 02:40:32;;;;;;;;;70.00;53.50;;;;;4.39;66.49;100105.22;4987498;28;45505;-59
2022/12/10 02:42:58;;;;;;;;;61.25;48.50;;;;;4.35;66.71;100112.25;4994534;28;45499;-59
2022/12/10 02:45:27;;;;;;;;;64.00;48.00;;;;;4.31;67.11;100107.97;4994115;28;45999;-60
2022/12/10 02:47:57;;;;;;;;;58.75;49.00;;;;;4.32;66.93;100109.66;4994048;28;45505;-60
2022/12/10 02:50:23;;;;;;;;;47.00;43.00;;;;;4.28;66.93;100110.63;4994462;28;45542;-59
2022/12/10 02:52:49;;;;;;;;;57.75;44.25;;;;;4.25;66.93;100107.22;4994397;28;45659;-59
2022/12/10 02:55:14;;;;;;;;;50.00;42.25;;;;;4.25;66.88;100115.03;4980114;28;45420;-60
2022/12/10 02:57:52;;;;;;;;;57.00;44.75;;;;;4.25;67.47;100115.88;4980132;28;46128;-60
2022/12/10 03:00:20;;;;;;;;;54.75;41.25;;;;;4.21;67.58;100102.03;4994540;28;45552;-59
2022/12/10 03:02:57;;;;;;;;;56.75;45.50;;;;;4.22;66.85;100110.75;4993462;28;45574;-60
2022/12/10 03:05:30;;;;;;;;;58.25;44.00;;;;;4.25;67.64;100108.09;4994036;28;45588;-64
2022/12/10 03:08:06;;;;;;;;;49.00;40.50;;;;;4.27;67.48;100111.53;4994252;28;45490;-65
2022/12/10 03:10:49;;;;;;;;;50.00;41.00;;;;;4.25;66.94;100099.41;4994202;28;45494;-59
2022/12/10 03:13:18;;;;;;;;;53.50;44.50;;;;;4.29;66.83;100098.47;4983008;28;45510;-60
2022/12/10 03:15:46;;;;;;;;;47.00;40.50;;;;;4.25;67.49;100099.41;4993731;28;46380;-59
2022/12/10 03:18:15;;;;;;;;;52.25;42.75;;;;;4.28;67.78;100110.63;4993871;28;45468;-59
2022/12/10 03:20:45;;;;;;;;;54.00;44.75;;;;;4.28;66.89;100105.41;4994090;28;45473;-59
2022/12/10 03:23:18;;;;;;;;;57.00;43.25;;;;;4.27;67.27;100108.91;4993473;28;45545;-58
2022/12/10 03:25:45;;;;;;;;;57.50;42.25;;;;;4.32;67.49;100101.00;4994028;28;46021;-59
2022/12/10 03:28:11;;;;;;;;;57.00;42.25;;;;;4.30;66.66;100106.25;4993774;28;45518;-59
2022/12/10 03:30:38;;;;;;;;;54.25;45.25;;;;;4.30;66.52;100113.19;4993944;28;45461;-58
2022/12/10 03:33:06;;;;;;;;;54.50;44.50;;;;;4.28;66.54;100104.56;4993359;28;45568;-59
2022/12/10 03:35:32;;;;;;;;;58.25;44.25;;;;;4.35;66.77;100111.34;4993575;28;46344;-60
2022/12/10 03:37:58;;;;;;;;;55.50;45.50;;;;;4.36;66.93;100116.56;4995093;28;45604;-59
2022/12/10 03:40:25;;;;;;;;;58.00;47.00;;;;;4.38;66.51;100117.41;4976289;28;45531;-59
2022/12/10 03:42:50;;;;;;;;;55.50;44.25;;;;;4.37;66.80;100117.41;4990934;28;45595;-59
2022/12/10 03:45:16;;;;;;;;;56.50;45.50;;;;;4.40;67.21;100119.94;4992985;28;46240;-58
2022/12/10 03:47:42;;;;;;;;;49.25;40.50;;;;;4.38;66.57;100120.00;4997234;28;45412;-60
2022/12/10 03:50:08;;;;;;;;;47.25;41.25;;;;;4.37;66.61;100125.22;4997247;28;45428;-59
2022/12/10 03:52:34;;;;;;;;;44.25;41.50;;;;;4.37;66.71;100128.66;5001516;28;45580;-59
2022/12/10 03:54:59;;;;;;;;;43.75;39.25;;;;;4.34;66.54;100122.66;5016760;28;45550;-60
2022/12/10 03:57:25;;;;;;;;;52.50;43.00;;;;;4.37;66.59;100126.06;5013484;28;45551;-59
2022/12/10 03:59:50;;;;;;;;;50.00;40.00;;;;;4.33;66.59;100128.78;5004039;28;45449;-60
2022/12/10 04:02:16;;;;;;;;;50.00;41.00;;;;;4.37;67.34;100130.44;4996067;28;45576;-59
2022/12/10 04:04:41;;;;;;;;;49.75;41.25;;;;;4.40;67.25;100140.78;5004814;28;46049;-59
2022/12/10 04:07:06;;;;;;;;;51.00;41.00;;;;;4.36;66.00;100132.19;4988871;28;45398;-60
2022/12/10 04:09:32;;;;;;;;;46.50;38.00;;;;;4.38;66.41;100126.94;5004256;28;45601;-60
2022/12/10 04:11:59;;;;;;;;;50.50;43.00;;;;;4.41;67.05;100126.91;5011661;28;45476;-59
2022/12/10 04:17:10;;;;;;;;;49.75;40.25;;;;;4.44;66.29;100137.25;5013574;28;45507;-59
2022/12/10 04:19:35;;;;;;;;;46.00;40.25;;;;;4.42;66.86;100126.84;5016635;28;45413;-60
2022/12/10 04:27:31;;;;;;;;;40.75;37.75;;;;;4.41;66.04;100137.31;5002256;28;45436;-60
2022/12/10 04:29:58;;;;;;;;;44.50;37.25;;;;;4.42;66.38;100136.41;5016278;28;45523;-59
2022/12/10 04:32:26;;;;;;;;;46.50;38.75;;;;;4.41;65.40;100145.13;5013782;28;45490;-59
2022/12/10 04:34:51;;;;;;;;;41.75;38.75;;;;;4.38;65.55;100130.41;5016926;28;46093;-62
2022/12/10 04:37:18;;;;;;;;;42.00;35.50;;;;;4.36;65.97;100137.38;5016049;28;45577;-59
2022/12/10 04:39:43;;;;;;;;;45.00;38.75;;;;;4.36;65.52;100144.34;4998598;28;45523;-57
2022/12/10 04:42:09;;;;;;;;;44.50;36.00;;;;;4.34;65.37;100146.94;4999318;28;45517;-59
2022/12/10 04:44:35;;;;;;;;;34.50;29.50;;;;;4.32;65.70;100148.72;5015475;28;46190;-59
2022/12/10 04:47:02;;;;;;;;;36.50;35.00;;;;;4.34;65.93;100152.16;5016099;28;45478;-59
2022/12/10 04:49:27;;;;;;;;;34.50;32.50;;;;;4.36;64.61;100158.22;5015376;28;45570;-60
2022/12/10 04:51:53;;;;;;;;;39.00;35.50;;;;;4.37;65.46;100157.31;5015225;28;45531;-59
2022/12/10 04:54:19;;;;;;;;;34.50;33.00;;;;;4.40;65.33;100146.84;5011569;28;46076;-60
2022/12/10 04:56:45;;;;;;;;;41.00;34.25;;;;;4.41;65.28;100139.91;5015171;28;45567;-59
2022/12/10 04:59:11;;;;;;;;;37.75;32.75;;;;;4.45;65.03;100146.78;5015997;28;45464;-59
2022/12/10 05:01:37;;;;;;;;;34.75;31.00;;;;;4.42;64.45;100146.81;5000039;28;45500;-60
2022/12/10 05:04:05;;;;;;;;;31.75;30.00;;;;;4.44;64.21;100158.09;5008134;28;45468;-58
2022/12/10 05:06:30;;;;;;;;;32.25;26.25;;;;;4.40;63.67;100157.25;5015704;28;45510;-60
2022/12/10 05:08:56;;;;;;;;;28.25;27.75;;;;;4.40;64.23;100162.47;5015415;28;45483;-59
2022/12/10 05:11:24;;;;;;;;;35.75;31.25;;;;;4.41;64.60;100161.59;5015650;28;45484;-59
2022/12/10 05:13:49;;;;;;;;;32.75;30.75;;;;;4.44;64.67;100150.28;5006777;28;45479;-60
2022/12/10 05:16:17;;;;;;;;;37.75;33.50;;;;;4.43;64.16;100154.63;5015481;28;45472;-60
2022/12/10 05:18:43;;;;;;;;;34.00;33.50;;;;;4.41;63.67;100145.13;5015570;28;45591;-59
2022/12/10 05:21:13;;;;;;;;;37.25;34.75;;;;;4.45;64.59;100158.94;5015573;28;45607;-59
2022/12/10 05:23:40;;;;;;;;;39.75;31.75;;;;;4.47;64.81;100155.41;4999930;28;45441;-59
2022/12/10 05:26:20;;;;;;;;;34.50;32.50;;;;;4.43;63.92;100148.53;5015482;28;45432;-60
2022/12/10 05:28:49;;;;;;;;;33.50;29.75;;;;;4.48;64.09;100157.13;5015443;28;45562;-59
2022/12/10 05:31:20;;;;;;;;;38.50;33.25;;;;;4.48;63.83;100157.13;5007462;28;45441;-59
2022/12/10 05:33:46;;;;;;;;;32.75;30.75;;;;;4.48;64.25;100156.28;4994396;28;46345;-60
2022/12/10 05:36:13;;;;;;;;;27.75;25.00;;;;;4.47;63.51;100159.78;5015167;28;45448;-60
2022/12/10 05:38:40;;;;;;;;;29.75;29.75;;;;;4.48;64.12;100164.94;5015033;28;45425;-60
2022/12/10 05:41:11;;;;;;;;;28.00;23.75;;;;;4.47;63.72;100167.59;5015163;28;45526;-56
2022/12/10 05:43:37;;;;;;;;;28.00;25.25;;;;;4.47;63.55;100168.44;4984021;28;47499;-60
2022/12/10 05:46:04;;;;;;;;;28.75;24.75;;;;;4.45;63.63;100174.56;5015130;28;45541;-58
2022/12/10 05:48:31;;;;;;;;;24.75;23.75;;;;;4.40;63.00;100169.41;5015241;28;45488;-57
2022/12/10 05:50:56;;;;;;;;;26.50;25.50;;;;;4.41;63.69;100177.22;5009436;28;45647;-60
2022/12/10 05:53:22;;;;;;;;;29.50;25.25;;;;;4.42;63.41;100184.13;4994841;28;45785;-60
2022/12/10 05:55:48;;;;;;;;;30.25;26.00;;;;;4.39;63.80;100197.19;4985335;28;45529;-58
2022/12/10 05:58:14;;;;;;;;;33.75;29.50;;;;;4.40;63.89;100188.50;5015040;28;45411;-59
2022/12/10 06:00:40;;;;;;;;;37.75;31.75;;;;;4.43;63.93;100185.88;5002928;28;45499;-56
2022/12/10 06:03:06;;;;;;;;;31.75;27.25;;;;;4.45;64.12;100188.44;5011747;28;46220;-59
2022/12/10 06:05:39;;;;;;;;;34.75;30.75;;;;;4.48;63.98;100188.38;5010002;28;45427;-59
2022/12/10 06:08:06;;;;;;;;;34.50;32.25;;;;;4.51;64.15;100187.47;5014638;28;45924;-59
2022/12/10 06:10:35;;;;;;;;;32.75;30.50;;;;;4.49;63.72;100197.91;5004169;28;45567;-59
2022/12/10 06:13:00;;;;;;;;;29.75;26.50;;;;;4.51;63.62;100193.53;4984233;28;46323;-60
2022/12/10 06:15:25;;;;;;;;;35.75;32.75;;;;;4.48;63.64;100196.19;5015265;28;45421;-58
2022/12/10 06:17:51;;;;;;;;;36.50;31.25;;;;;4.46;63.82;100191.88;5015276;28;45503;-58
2022/12/10 06:20:16;;;;;;;;;40.75;33.75;;;;;4.46;64.64;100197.97;4998107;28;45499;-58
2022/12/10 06:22:42;;;;;;;;;44.25;34.00;;;;;4.48;64.22;100197.94;5015096;28;46310;-57
2022/12/10 06:25:07;;;;;;;;;33.00;29.25;;;;;4.48;63.86;100204.00;4997716;28;45455;-60
2022/12/10 06:27:33;;;;;;;;;27.00;25.25;;;;;4.42;64.10;100207.56;4998568;28;45498;-61
2022/12/10 06:29:58;;;;;;;;;31.75;29.50;;;;;4.43;63.27;100206.69;5015011;28;45555;-60
2022/12/10 06:32:24;;;;;;;;;32.75;30.25;;;;;4.44;64.17;100217.97;4997396;28;46350;-60
2022/12/10 06:34:50;;;;;;;;;32.00;29.00;;;;;4.40;64.33;100211.94;5015613;28;45569;-60
2022/12/10 06:37:15;;;;;;;;;30.50;29.50;;;;;4.42;63.82;100220.59;5004476;28;45509;-60
2022/12/10 06:39:40;;;;;;;;;34.25;29.25;;;;;4.44;64.50;100217.97;5014800;28;45405;-60
2022/12/10 06:42:06;;;;;;;;;35.00;28.75;;;;;4.46;64.20;100223.13;5014601;28;50975;-60
2022/12/10 06:44:31;;;;;;;;;30.50;29.00;;;;;4.46;64.44;100223.13;5015131;28;45523;-61
2022/12/10 06:46:56;;;;;;;;;28.00;26.75;;;;;4.45;64.23;100224.88;4994371;28;45495;-59
2022/12/10 06:49:22;;;;;;;;;32.00;28.75;;;;;4.42;64.25;100224.94;5015001;28;45515;-58
2022/12/10 06:51:47;;;;;;;;;31.75;27.00;;;;;4.43;63.92;100232.75;5009137;28;46198;-59
2022/12/10 06:54:13;;;;;;;;;29.25;25.50;;;;;4.45;64.03;100234.44;5010643;28;45567;-60
2022/12/10 06:56:38;;;;;;;;;29.00;27.25;;;;;4.40;63.53;100232.75;5008495;28;45667;-58
2022/12/10 06:59:06;;;;;;;;;31.75;27.50;;;;;4.42;64.08;100237.94;5014758;28;45521;-57
2022/12/10 07:01:31;;;;;;;;;28.25;25.25;;;;;4.45;63.45;100242.25;5000510;28;45905;-58
2022/12/10 07:03:57;;;;;;;;;30.00;26.25;;;;;4.46;63.64;100237.03;4996096;28;45413;-58
2022/12/10 07:06:23;;;;;;;;;33.75;27.75;;;;;4.49;64.24;100246.53;4995639;28;45702;-59
2022/12/10 07:08:49;;;;;;;;;29.00;27.25;;;;;4.50;63.63;100250.84;5011570;28;45455;-58
2022/12/10 07:11:17;;;;;;;;;33.75;30.25;;;;;4.49;63.89;100252.59;5003074;28;45403;-59
2022/12/10 07:13:43;;;;;;;;;34.50;30.75;;;;;4.50;63.51;100256.06;5013882;28;45575;-55
2022/12/10 07:16:13;;;;;;;;;29.75;23.75;;;;;4.49;64.16;100260.41;4997409;28;45605;-60
2022/12/10 07:18:38;;;;;;;;;26.75;25.25;;;;;4.54;64.11;100261.22;5012758;28;45774;-59
2022/12/10 07:21:17;;;;;;;;;31.25;28.75;;;;;4.57;63.73;100262.91;4996180;28;46428;-59
2022/12/10 07:23:42;;;;;;;;;34.25;29.75;;;;;4.55;63.55;100267.25;5014315;28;45679;-59
2022/12/10 07:26:07;;;;;;;;;34.75;27.75;;;;;4.58;64.04;100273.28;4999502;28;45780;-60
2022/12/10 07:28:33;;;;;;;;;29.50;28.00;;;;;4.57;63.64;100276.78;4998449;28;45559;-60
2022/12/10 07:31:06;;;;;;;;;27.75;23.75;;;;;4.56;64.11;100272.44;4998329;28;46123;-58
2022/12/10 07:33:32;;;;;;;;;31.00;26.75;;;;;4.58;64.28;100280.25;4991811;28;45587;-55
2022/12/10 07:35:58;;;;;;;;;28.00;25.25;;;;;4.61;63.94;100277.56;4980434;28;45442;-56
2022/12/10 07:38:24;;;;;;;;;36.25;29.75;;;;;4.61;63.88;100272.38;5007374;28;45653;-59
2022/12/10 07:40:50;;;;;;;;;32.25;30.50;;;;;4.63;63.98;100273.22;5011078;28;45550;-58
2022/12/10 07:43:16;;;;;;;;;31.00;28.25;;;;;4.61;63.60;100278.44;5002401;28;45432;-59
2022/12/10 07:45:41;;;;;;;;;29.25;29.25;;;;;4.65;63.47;100285.31;4998196;28;45469;-60
2022/12/10 07:48:07;;;;;;;;;26.50;25.00;;;;;4.61;63.54;100294.06;5010561;28;45458;-59
2022/12/10 07:50:32;;;;;;;;;29.25;24.00;;;;;4.62;63.43;100287.97;5009562;28;45918;-60
2022/12/10 07:52:58;;;;;;;;;28.00;25.00;;;;;4.59;63.06;100289.75;5013009;28;45492;-59
2022/12/10 07:55:23;;;;;;;;;30.50;27.25;;;;;4.59;64.12;100295.84;5007711;28;45462;-57
2022/12/10 07:57:48;;;;;;;;;33.25;30.25;;;;;4.59;63.87;100303.66;5010165;28;45726;-59
2022/12/10 08:00:14;;;;;;;;;32.50;28.50;;;;;4.60;63.24;100302.78;5006109;28;46131;-57
2022/12/10 08:02:39;;;;;;;;;31.25;28.25;;;;;4.58;63.52;100293.25;5007280;28;45553;-56
2022/12/10 08:05:05;;;;;;;;;29.25;27.50;;;;;4.64;63.40;100299.22;5013528;28;45472;-59
2022/12/10 08:07:30;;;;;;;;;27.50;27.25;;;;;4.62;63.56;100298.41;5013936;28;45611;-59
2022/12/10 08:09:55;;;;;;;;;23.75;23.50;;;;;4.66;62.81;100301.81;5007089;28;46304;-56
2022/12/10 08:12:21;;;;;;;;;28.25;28.00;;;;;4.68;63.66;100302.66;4992347;28;45532;-55
2022/12/10 08:14:46;;;;;;;;;28.75;27.25;;;;;4.68;63.88;100309.63;4998658;28;45633;-57
2022/12/10 08:17:11;;;;;;;;;36.50;28.75;;;;;4.71;63.11;100314.78;4989974;28;45425;-60
2022/12/10 08:19:37;;;;;;;;;34.50;29.25;;;;;4.72;63.23;100314.72;5005427;28;45495;-59
2022/12/10 08:22:02;;;;;;;;;29.75;27.50;;;;;4.74;63.73;100327.75;4989586;28;45488;-60
2022/12/10 08:24:27;;;;;;;;;22.50;21.50;;;;;4.76;63.68;100325.97;5014098;28;45435;-61
2022/12/10 08:26:53;;;;;;;;;29.00;26.75;;;;;4.78;63.44;100327.69;5007436;28;45479;-58
2022/12/10 08:29:18;;;;;;;;;37.25;30.00;;;;;4.81;63.65;100331.97;5007890;28;45497;-55
2022/12/10 08:31:43;;;;;;;;;32.75;30.25;;;;;4.83;63.66;100340.59;4992720;28;45547;-58
2022/12/10 08:34:13;;;;;;;;;33.25;29.00;;;;;4.85;63.14;100336.25;5003738;28;45441;-59
2022/12/10 08:36:38;;;;;;;;;28.00;25.25;;;;;4.88;63.46;100350.06;5008559;28;45546;-59
2022/12/10 08:39:03;;;;;;;;;32.75;29.00;;;;;4.89;63.22;100340.53;4993897;28;45534;-58
2022/12/10 08:41:29;;;;;;;;;31.50;25.00;;;;;4.92;63.30;100344.84;4992103;28;45574;-57
2022/12/10 08:43:54;;;;;;;;;26.25;26.25;;;;;4.93;63.56;100346.53;4998063;28;45761;-59
2022/12/10 08:46:20;;;;;;;;;27.75;25.00;;;;;4.92;63.40;100340.47;4990108;28;45690;-58
2022/12/10 08:48:46;;;;;;;;;39.50;33.25;;;;;4.97;63.23;100348.19;4994124;28;45644;-58
2022/12/10 08:51:15;;;;;;;;;31.00;28.25;;;;;4.98;62.95;100350.78;5002249;28;45495;-58
2022/12/10 08:53:41;;;;;;;;;30.00;27.00;;;;;4.97;63.06;100351.69;4993966;28;45519;-60
2022/12/10 08:56:07;;;;;;;;;29.50;29.00;;;;;4.97;63.25;100343.88;5001464;28;45599;-58
2022/12/10 08:58:32;;;;;;;;;33.75;30.50;;;;;4.95;63.12;100345.63;4998393;28;45983;-57
2022/12/10 09:00:58;;;;;;;;;28.25;26.00;;;;;4.97;63.45;100356.91;4998943;28;45453;-60
2022/12/10 09:03:24;;;;;;;;;34.50;28.50;;;;;5.01;62.99;100358.56;4980359;28;45483;-58
2022/12/10 09:05:50;;;;;;;;;33.50;29.00;;;;;5.03;62.58;100362.00;4995239;28;45515;-58
2022/12/10 09:08:15;;;;;;;;;37.75;31.00;;;;;4.99;62.89;100362.06;4990867;28;46020;-56
2022/12/10 09:10:41;;;;;;;;;27.25;26.50;;;;;4.98;63.14;100371.63;4992772;28;45499;-56
2022/12/10 09:13:07;;;;;;;;;34.00;29.50;;;;;5.00;63.07;100371.63;5006835;28;45578;-57
2022/12/10 09:15:32;;;;;;;;;30.50;29.50;;;;;4.96;63.19;100370.78;5015630;28;45472;-55
2022/12/10 09:17:58;;;;;;;;;30.25;29.25;;;;;5.00;62.52;100379.44;5015369;28;45896;-55
2022/12/10 09:20:23;;;;;;;;;32.25;28.50;;;;;4.99;62.85;100383.78;5002108;28;45667;-56
2022/12/10 09:22:49;;;;;;;;;35.50;28.75;;;;;4.96;63.07;100372.56;5007249;28;45448;-55
2022/12/10 09:25:16;;;;;;;;;31.00;29.75;;;;;4.99;63.01;100382.91;5015375;28;45568;-57
2022/12/10 09:27:42;;;;;;;;;31.00;29.75;;;;;5.02;62.71;100378.53;5014636;28;45525;-55
2022/12/10 09:30:09;;;;;;;;;24.50;23.25;;;;;5.03;62.53;100382.84;4995874;28;45523;-58
2022/12/10 09:32:35;;;;;;;;;29.75;26.00;;;;;5.02;62.49;100383.75;5003458;28;45456;-57
2022/12/10 09:35:01;;;;;;;;;28.75;26.75;;;;;4.97;62.68;100388.19;5015936;28;45561;-57
2022/12/10 09:37:26;;;;;;;;;33.00;29.00;;;;;5.01;62.51;100381.16;5015162;28;46039;-55
2022/12/10 09:39:51;;;;;;;;;30.75;27.50;;;;;5.03;62.72;100384.59;4999293;28;45480;-55
2022/12/10 09:42:37;;;;;;;;;24.50;24.50;;;;;5.06;62.43;100388.00;5010682;28;45888;-56
2022/12/10 09:45:13;;;;;;;;;33.50;26.75;;;;;5.07;62.35;100387.13;5015247;28;45524;-56
2022/12/10 09:47:58;;;;;;;;;28.25;25.75;;;;;5.07;62.35;100391.47;5014736;28;46162;-56
2022/12/10 09:50:33;;;;;;;;;29.00;27.50;;;;;5.08;62.42;100388.00;5002770;28;45539;-53
2022/12/10 09:53:01;;;;;;;;;27.75;25.50;;;;;5.10;62.14;100391.41;4987778;28;45538;-54
2022/12/10 09:55:40;;;;;;;;;33.25;25.00;;;;;5.10;62.24;100394.03;5012291;28;45587;-55
2022/12/10 09:58:13;;;;;;;;;28.00;25.75;;;;;5.12;62.46;100394.88;4987533;28;46404;-55
2022/12/10 10:00:41;;;;;;;;;29.00;28.50;;;;;5.15;62.29;100401.78;4992951;28;45515;-56
2022/12/10 10:03:12;;;;;;;;;32.00;25.50;;;;;5.18;62.31;100399.97;4993300;28;45766;-57
2022/12/10 10:05:42;;;;;;;;;30.00;26.75;;;;;5.20;62.07;100400.81;5004717;28;45511;-54
2022/12/10 10:08:17;;;;;;;;;27.25;27.25;;;;;5.18;62.12;100393.91;5001473;28;46323;-60
2022/12/10 10:10:44;;;;;;;;;34.50;26.00;;;;;5.18;61.82;100394.75;5011300;28;45441;-55
2022/12/10 10:13:34;;;;;;;;;31.50;27.00;;;;;5.20;61.96;100395.59;4999982;28;45509;-55
2022/12/10 10:16:22;;;;;;;;;29.75;27.25;;;;;5.21;62.16;100388.63;4995969;28;45657;-57
2022/12/10 10:18:57;;;;;;;;;27.75;26.50;;;;;5.21;61.46;100399.06;4986887;28;46245;-59
2022/12/10 10:21:27;;;;;;;;;34.00;29.50;;;;;5.22;61.42;100395.59;5002911;28;45590;-59
2022/12/10 10:23:53;;;;;;;;;35.25;29.75;;;;;5.19;61.34;100391.28;4983041;28;45434;-61
2022/12/10 10:26:19;;;;;;;;;32.25;29.25;;;;;5.21;61.46;100384.31;4985934;28;45447;-61
2022/12/10 10:28:45;;;;;;;;;28.25;26.50;;;;;5.23;61.36;100392.94;5004057;28;45432;-60
2022/12/10 10:31:23;;;;;;;;;37.50;32.75;;;;;5.20;61.21;100386.94;4995768;28;45516;-59
2022/12/10 10:33:57;;;;;;;;;33.75;30.25;;;;;5.24;61.80;100389.47;5011915;28;45543;-59
2022/12/10 10:36:38;;;;;;;;;28.75;28.00;;;;;5.22;61.70;100396.44;5004872;28;45543;-60
2022/12/10 10:39:11;;;;;;;;;31.75;28.00;;;;;5.27;61.98;100394.63;4990901;28;45563;-60
2022/12/10 10:41:39;;;;;;;;;38.75;34.25;;;;;5.29;61.63;100395.47;5000318;28;45469;-60
2022/12/10 10:44:11;;;;;;;;;30.75;22.75;;;;;5.30;61.97;100397.19;5005280;28;45587;-57
2022/12/10 10:46:38;;;;;;;;;38.75;34.75;;;;;5.28;61.65;100387.66;4989632;28;45533;-60
2022/12/10 10:49:27;;;;;;;;;34.00;30.50;;;;;5.31;62.21;100398.88;4995689;28;45539;-60
2022/12/10 10:51:57;;;;;;;;;36.75;31.00;;;;;5.32;62.18;100402.38;4990406;28;45752;-60
2022/12/10 10:54:40;;;;;;;;;38.25;35.50;;;;;5.26;61.68;100398.09;4995622;28;45526;-60
2022/12/10 10:57:18;;;;;;;;;39.00;33.25;;;;;5.15;61.58;100384.38;5000190;28;45598;-60
2022/12/10 10:59:45;;;;;;;;;35.25;31.25;;;;;5.16;62.04;100400.88;4985407;28;45488;-60
2022/12/10 11:02:40;;;;;;;;;40.00;36.50;;;;;5.17;62.37;100398.28;5003053;28;45496;-60
2022/12/10 11:05:28;;;;;;;;;37.75;33.75;;;;;5.15;61.82;100415.66;5013444;28;45519;-60
2022/12/10 11:08:05;;;;;;;;;39.25;32.00;;;;;5.13;61.63;100407.03;5005499;28;45513;-60
2022/12/10 11:10:30;;;;;;;;;36.75;34.50;;;;;5.10;61.42;100404.44;5013723;28;45520;-60
2022/12/10 11:13:06;;;;;;;;;29.50;26.50;;;;;5.09;62.18;100415.78;5013665;28;45445;-60
2022/12/10 11:15:34;;;;;;;;;36.00;29.25;;;;;5.11;61.63;100413.16;5011339;28;45595;-59
2022/12/10 11:18:01;;;;;;;;;29.50;27.00;;;;;5.09;61.56;100407.97;5007766;28;45444;-59
2022/12/10 11:20:34;;;;;;;;;34.50;33.00;;;;;5.07;61.42;100407.97;4998779;28;45619;-59
2022/12/10 11:23:02;;;;;;;;;39.25;34.50;;;;;4.97;61.98;100406.41;5007484;28;45623;-59
2022/12/10 11:25:49;;;;;;;;;33.75;29.25;;;;;5.02;62.38;100404.59;5013540;28;45385;-59
2022/12/10 11:28:59;;;;;;;;;29.00;28.25;;;;;5.03;61.85;100408.06;4990916;28;45503;-57
2022/12/10 11:31:43;;;;;;;;;30.75;26.75;;;;;5.08;62.18;100403.63;5012985;28;45483;-64